createdAt,value
2023-01-08T17:21:31.596Z,95437.95
2023-01-08T17:23:58.540Z,95442.71
2023-01-08T17:26:25.729Z,95444.22
2023-01-08T17:28:52.663Z,95446.50
2023-01-08T17:31:20.934Z,95448.04
2023-01-08T17:33:50.520Z,95452.90
2023-01-08T17:36:20.396Z,95453.88
2023-01-08T17:38:49.437Z,95455.90
2023-01-08T17:41:56.368Z,95454.23
2023-01-08T17:44:26.456Z,95457.95
2023-01-08T17:46:53.669Z,95460.02
2023-01-08T17:49:23.306Z,95459.56
2023-01-08T17:51:50.411Z,95464.90
2023-01-08T17:54:17.696Z,95466.60
2023-01-08T17:56:45.278Z,95469.68
2023-01-08T17:59:17.395Z,95471.84
2023-01-08T18:01:49.382Z,95468.77
2023-01-08T18:04:17.233Z,95471.45
2023-01-08T18:06:44.945Z,95471.20
2023-01-08T18:09:13.228Z,95470.92
2023-01-08T18:11:41.501Z,95473.26
2023-01-08T18:14:12.246Z,95475.65
2023-01-08T18:16:39.656Z,95475.27
2023-01-08T18:19:06.589Z,95484.70
2023-01-08T18:21:33.757Z,95485.02
2023-01-08T18:24:00.982Z,95488.53
2023-01-08T18:26:30.439Z,95489.49
2023-01-08T18:28:57.612Z,95489.04
2023-01-08T18:31:24.788Z,95488.17
2023-01-08T18:33:52.596Z,95487.23
2023-01-08T18:36:20.380Z,95489.95
2023-01-08T18:38:48.582Z,95493.88
2023-01-08T18:41:36.688Z,95494.40
2023-01-08T18:44:06.390Z,95492.64
2023-01-08T18:46:33.774Z,95497.02
2023-01-08T18:49:00.979Z,95495.27
2023-01-08T18:51:28.415Z,95497.86
2023-01-08T18:53:55.920Z,95499.40
2023-01-08T18:56:33.556Z,95505.02
2023-01-08T18:59:01.550Z,95502.10
2023-01-08T19:01:29.470Z,95497.41
2023-01-08T19:03:57.468Z,95499.40
2023-01-08T19:06:25.007Z,95501.25
2023-01-08T19:08:52.519Z,95502.73
2023-01-08T19:11:19.776Z,95503.92
2023-01-08T19:13:46.779Z,95509.19
2023-01-08T19:16:14.393Z,95513.13
2023-01-08T19:18:41.511Z,95516.05
2023-01-08T19:21:10.221Z,95523.96
2023-01-08T19:23:37.075Z,95522.85
2023-01-08T19:26:08.356Z,95521.73
2023-01-08T19:28:35.978Z,95525.11
2023-01-08T19:31:25.335Z,95527.01
2023-01-08T19:33:52.942Z,95524.60
2023-01-08T19:36:23.721Z,95524.41
2023-01-08T19:38:50.766Z,95523.35
2023-01-08T19:41:57.191Z,95521.86
2023-01-08T19:44:24.227Z,95528.56
2023-01-08T19:46:51.371Z,95530.64
2023-01-08T19:49:18.455Z,95530.02
2023-01-08T19:52:05.748Z,95529.35
2023-01-08T19:54:32.740Z,95534.58
2023-01-08T19:56:59.706Z,95541.56
2023-01-08T19:59:26.593Z,95541.37
2023-01-08T20:01:53.573Z,95537.70
2023-01-08T20:04:20.787Z,95533.70
2023-01-08T20:06:47.974Z,95535.48
2023-01-08T20:09:15.986Z,95536.02
2023-01-08T20:11:42.984Z,95536.33
2023-01-08T20:14:09.946Z,95530.95
2023-01-08T20:16:37.012Z,95531.98
2023-01-08T20:19:04.785Z,95533.67
2023-01-08T20:21:33.680Z,95536.91
2023-01-08T20:24:05.127Z,95538.34
2023-01-08T20:26:32.469Z,95535.02
2023-01-08T20:28:59.709Z,95533.75
2023-01-08T20:31:30.806Z,95534.01
2023-01-08T20:33:59.466Z,95531.05
2023-01-08T20:36:30.310Z,95534.42
2023-01-08T20:38:59.958Z,95533.61
2023-01-08T20:41:27.397Z,95535.73
2023-01-08T20:43:56.381Z,95537.14
2023-01-08T20:46:28.747Z,95535.06
2023-01-08T20:48:57.375Z,95535.66
2023-01-08T20:51:24.209Z,95540.16
2023-01-08T21:00:18.613Z,95559.91
2023-01-08T21:02:45.515Z,95564.20
2023-01-08T21:05:12.376Z,95562.73
2023-01-08T21:07:39.128Z,95563.02
2023-01-08T21:10:06.922Z,95568.17
2023-01-08T21:12:35.745Z,95564.70
2023-01-08T21:15:03.078Z,95569.02
2023-01-08T21:17:29.956Z,95567.45
2023-01-08T21:19:57.554Z,95563.48
2023-01-08T21:22:24.336Z,95565.08
2023-01-08T21:24:51.131Z,95564.09
2023-01-08T21:27:18.011Z,95565.36
2023-01-08T21:29:44.849Z,95562.29
2023-01-08T21:32:11.721Z,95557.83
2023-01-08T21:34:38.526Z,95560.19
2023-01-08T21:37:07.586Z,95560.16
2023-01-08T21:39:34.587Z,95555.91
2023-01-08T21:42:20.520Z,95561.38
2023-01-08T21:45:06.353Z,95562.73
2023-01-08T21:47:33.179Z,95566.95
2023-01-08T21:50:00.135Z,95562.23
2023-01-08T21:52:46.303Z,95559.06
2023-01-08T21:55:17.170Z,95560.50
2023-01-08T21:57:45.469Z,95560.57
2023-01-08T22:00:14.353Z,95560.19
2023-01-08T22:02:41.590Z,95561.29
2023-01-08T22:05:09.794Z,95560.98
2023-01-08T22:07:37.647Z,95561.95
2023-01-08T22:10:06.236Z,95557.89
2023-01-08T22:12:33.017Z,95557.15
2023-01-08T22:15:02.191Z,95554.88
2023-01-08T22:17:31.110Z,95552.66
2023-01-08T22:19:58.176Z,95552.00
2023-01-08T22:22:25.140Z,95551.40
2023-01-08T22:24:52.622Z,95549.11
2023-01-08T22:27:20.730Z,95546.52
2023-01-08T22:29:48.457Z,95545.44
2023-01-08T22:32:15.511Z,95539.30
2023-01-08T22:34:42.334Z,95538.85
2023-01-08T22:37:09.239Z,95536.85
2023-01-08T22:39:36.220Z,95539.77
2023-01-08T22:42:03.085Z,95538.39
2023-01-08T22:44:29.932Z,95538.61
2023-01-08T22:46:59.129Z,95537.61
2023-01-08T22:49:26.097Z,95532.33
2023-01-08T22:51:55.282Z,95529.33
2023-01-08T22:54:22.245Z,95529.31
2023-01-08T22:56:49.100Z,95530.73
2023-01-08T22:59:16.015Z,95530.42
2023-01-08T23:01:42.938Z,95530.04
2023-01-08T23:04:10.753Z,95526.17
2023-01-08T23:06:38.462Z,95524.09
2023-01-08T23:09:05.414Z,95520.86
2023-01-08T23:11:32.717Z,95518.13
2023-01-08T23:14:01.062Z,95514.94
2023-01-08T23:16:28.000Z,95509.86
2023-01-08T23:18:56.066Z,95509.59
2023-01-08T23:21:26.625Z,95507.04
2023-01-08T23:23:53.525Z,95508.17
2023-01-08T23:26:23.575Z,95514.73
2023-01-08T23:28:52.456Z,95511.06
2023-01-08T23:31:24.965Z,95510.56
2023-01-08T23:33:52.524Z,95506.88
2023-01-08T23:36:21.489Z,95509.67
2023-01-08T23:38:54.062Z,95507.67
2023-01-08T23:41:25.695Z,95506.55
2023-01-08T23:43:52.575Z,95502.51
2023-01-08T23:46:19.405Z,95503.91
2023-01-08T23:48:46.231Z,95498.27
2023-01-08T23:51:13.110Z,95496.46
2023-01-08T23:53:39.894Z,95499.48
2023-01-08T23:56:07.839Z,95499.09
2023-01-08T23:58:36.113Z,95497.52
